This is the latest recevied weather packets stored in our database for station/object KD7DVD-1. If no packets are shown the sender has not sent any weather packets the latest 10 day(s).
| Time | Temp. | Humidity | Pressure | Rain* | Wind** | Luminosity | Snow |
|---|---|---|---|---|---|---|---|
| 1788114630 | 17.78° C | 71% | 1020.1 hPa | 0 mm | - | - | - |
| 1788112815 | 17.22° C | 72% | 1020.2 hPa | 0 mm | - | - | - |
| 1788111017 | 16.67° C | 75% | 1020.1 hPa | 0 mm | - | - | - |
| 1788109217 | 16.11° C | 75% | 1020.1 hPa | 0 mm | - | - | - |
| 1788107417 | 15.56° C | 78% | 1020.1 hPa | 0 mm | - | - | - |
| 1788105617 | 15° C | 79% | 1020.2 hPa | 0 mm | - | - | - |
| 1788103817 | 14.44° C | 83% | 1020.1 hPa | 0 mm | - | - | - |
| 1788102017 | 13.33° C | 87% | 1020.1 hPa | 0 mm | - | - | - |
| 1788100217 | 12.22° C | 90% | 1019.9 hPa | 0 mm | - | - | - |
| 1788098417 | 11.67° C | 90% | 1019.6 hPa | 0 mm | - | - | - |
| 1788096617 | 12.22° C | 89% | 1019.6 hPa | 0 mm | - | - | - |
| 1788094817 | 12.78° C | 88% | 1019.6 hPa | 0 mm | - | - | - |
| 1788093017 | 12.78° C | 87% | 1019.5 hPa | 0 mm | - | - | - |
| 1788091217 | 12.78° C | 87% | 1019.7 hPa | 0 mm | - | - | - |
| 1788089416 | 12.78° C | 87% | 1019.7 hPa | 0 mm | - | - | - |
| 1788087616 | 12.78° C | 86% | 1019.5 hPa | 0 mm | - | - | - |
| 1788085816 | 13.33° C | 86% | 1019.6 hPa | 0 mm | - | - | - |
| 1788084016 | 13.33° C | 86% | 1019.5 hPa | 0 mm | - | - | - |
| 1788082216 | 13.33° C | 84% | 1019.4 hPa | 0 mm | - | - | - |
| 1788080416 | 13.33° C | 86% | 1019.5 hPa | 0 mm | - | - | - |
| 1788078616 | 13.33° C | 87% | 1019.4 hPa | 0 mm | - | - | - |
| 1788076816 | 13.33° C | 85% | 1019.3 hPa | 0 mm | - | - | - |
| 1788075016 | 13.89° C | 84% | 1019.2 hPa | 0 mm | - | - | - |
| 1788073216 | 14.44° C | 83% | 1018.9 hPa | 0 mm | - | - | - |
| 1788071417 | 15° C | 82% | 1018.7 hPa | 0 mm | - | - | - |
* Rain latest hour (hover to see other rain measurements)
** Current wind speed in m/s (hover to see current wind gust speed)